logo dgac
Miércoles 10 de Agosto del 2022
Buscar por aerodromo o helipuerto
Ingrese nombre de aeródromo, localidad o designador OACI:

Aeródromo: General Freire (PUB) (SCIC)

Ubicación: Curicó, VII Región, Chile (34º 58' 00'' S, 71º 12' 59'' W) Ver ubicación en el mapa

Pistas

Orientación Dimensión Pendiente Superficie Resistencia APCH THR RWY PAPI
01/19 800 x 18 0,30 ASPH 7.500 kg No No No No
Horas de operación HJ
Elevación 220 m / 722 ft
Otra Información Adm : D.G.A.C.
Uso : PUB
Ubicado 3 km NE Curicó
TEL 752380353 Cel +56 9 6174 3695
email : aro.curico@dgac.gob.cl

Otra información ver AIP-Chile Volumen I AD 3.9-3.16-C

CCCM/FCCV Descargar
andera de Chile
Mapa de General Freire (PUB) (SCIC)

Último METAR

METAR SCIC 101800Z VRB02KT 8000 NSC 16/06 Q1017

Último TAF

TAF SCIC 101100Z 1012/1100 VRB02KT 8000 NSC TX15/1018Z TN03/1012Z TEMPO 1012/1014 VRB02KT 2000 BR BKN005 BECMG 1016/1018 21008KT CAVOK

Últimas fotos cámaras

Imagen aerodromo General Freire (PUB) (SCIC) Norte tomada el 10-08-2022 06:15:07 Imagen aerodromo General Freire (PUB) (SCIC) Sur tomada el 10-08-2022 06:16:15

Último NOTAM

W1377/22 NOTAMN Q)SCEZ/QWPLW/IV/M/AW/000/100/3458S07113W001 A)SCIC B)2208041109 C)2208312251 D)BTN CCCM-FCCV E)PJE SECT AD ZONE ...D... CIRCULAR AREA 01NM CENTERED ON NXT GEO COORD: 345800S/0711259W MANDATORY USE MODE A/C SSR,JUMP SUBJ ACC STGO CLR TEL 228364017 (ACCS) INSTRUCTIONS: CURICO INFO 126.7MHZ SANTIAGO RADAR 123.8MHZ SANTIAGO INFO 135.4MHZ F)GND G)FL100